Time;durP1;ratioP1;P1;durP2;ratioP2;P2;SDS_P1;SDS_P2;PMS_P1;PMS_P2;Temp;Humidity;BMP_temperature;BMP_pressure;BME280_temperature;BME280_humidity;BME280_pressure;Samples;Min_cycle;Max_cycle;Signal;HPM_P1;HPM_P2
2022/05/03 00:00:54;;;;;;;11.40;8.88;;;6.30;99.90;;;;;;4958303;28;20054;-73
2022/05/03 00:03:46;;;;;;;13.70;12.27;;;6.30;99.90;;;;;;4971571;28;20109;-73
2022/05/03 00:06:15;;;;;;;14.57;13.05;;;6.30;99.90;;;;;;4986353;28;20065;-73
2022/05/03 00:08:43;;;;;;;11.55;10.07;;;6.30;99.90;;;;;;4986883;28;20152;-73
2022/05/03 00:11:24;;;;;;;12.63;10.75;;;6.20;99.90;;;;;;4986611;28;20038;-73
2022/05/03 00:13:56;;;;;;;15.77;13.02;;;6.20;99.90;;;;;;4976437;28;20046;-73
2022/05/03 00:16:24;;;;;;;11.10;9.90;;;6.20;99.90;;;;;;4989965;28;20521;-73
2022/05/03 00:18:50;;;;;;;11.25;9.65;;;6.20;99.90;;;;;;4990306;28;20053;-73
2022/05/03 00:21:16;;;;;;;12.40;9.75;;;6.20;99.90;;;;;;4964936;28;20128;-73
2022/05/03 00:23:44;;;;;;;11.05;9.73;;;6.10;99.90;;;;;;4972053;28;20125;-73
2022/05/03 00:26:10;;;;;;;10.30;9.30;;;6.10;99.90;;;;;;4971371;28;20089;-73
2022/05/03 00:28:38;;;;;;;10.57;9.43;;;6.10;99.90;;;;;;4951310;28;20712;-73
2022/05/03 00:31:07;;;;;;;11.02;9.93;;;6.10;99.90;;;;;;4935159;28;20054;-73
2022/05/03 00:33:33;;;;;;;11.07;9.68;;;6.00;99.90;;;;;;4951588;28;20130;-73
2022/05/03 00:35:59;;;;;;;10.73;8.75;;;6.00;99.90;;;;;;4951616;28;20054;-72
2022/05/03 00:38:26;;;;;;;10.30;9.02;;;6.00;99.90;;;;;;4968615;28;20068;-71
2022/05/03 00:41:01;;;;;;;11.05;9.35;;;5.80;99.90;;;;;;4985996;28;20589;-71
2022/05/03 00:43:42;;;;;;;9.95;8.88;;;5.80;99.90;;;;;;4985725;28;20689;-71
2022/05/03 00:46:19;;;;;;;12.88;11.57;;;5.80;99.90;;;;;;4982285;28;20054;-70
2022/05/03 00:49:16;;;;;;;15.38;13.77;;;5.70;99.90;;;;;;4986384;28;20708;-70
2022/05/03 00:51:55;;;;;;;12.77;10.48;;;5.70;99.90;;;;;;4956521;28;20051;-71
2022/05/03 00:55:05;;;;;;;15.48;12.95;;;5.60;99.90;;;;;;4950857;28;20129;-70
2022/05/03 00:58:15;;;;;;;12.30;11.00;;;5.60;99.90;;;;;;4950808;28;20074;-70
2022/05/03 01:00:53;;;;;;;13.95;12.07;;;5.50;99.90;;;;;;4963650;28;20558;-70
2022/05/03 01:03:31;;;;;;;15.93;14.05;;;5.40;99.90;;;;;;4950238;28;20495;-70
2022/05/03 01:06:06;;;;;;;12.25;10.93;;;5.50;99.90;;;;;;4978991;28;20049;-70
2022/05/03 01:08:52;;;;;;;16.38;13.20;;;5.50;99.90;;;;;;4979329;28;20573;-70
2022/05/03 01:11:42;;;;;;;11.45;10.18;;;5.50;99.90;;;;;;4940519;28;20061;-70
2022/05/03 01:14:30;;;;;;;11.25;10.05;;;5.40;99.90;;;;;;4966145;28;20054;-69
2022/05/03 01:17:03;;;;;;;10.25;9.18;;;5.40;99.90;;;;;;4955925;28;20056;-70
2022/05/03 01:19:44;;;;;;;14.10;12.48;;;5.40;99.90;;;;;;4985539;28;20461;-69
2022/05/03 01:22:28;;;;;;;18.45;16.35;;;5.40;99.90;;;;;;4962889;28;20408;-69
2022/05/03 01:25:24;;;;;;;11.70;10.50;;;5.30;99.90;;;;;;4969619;28;20042;-70
2022/05/03 01:28:09;;;;;;;15.85;13.52;;;5.30;99.90;;;;;;4986905;28;20148;-70
2022/05/03 01:30:37;;;;;;;12.90;11.38;;;5.30;99.90;;;;;;4970040;28;20626;-70
2022/05/03 01:33:09;;;;;;;12.32;11.02;;;5.20;99.90;;;;;;4969362;28;20081;-71
2022/05/03 01:35:39;;;;;;;13.20;11.75;;;5.20;99.90;;;;;;4978239;28;20065;-71
2022/05/03 01:38:05;;;;;;;12.38;11.18;;;5.20;99.90;;;;;;4969966;28;20085;-70
2022/05/03 01:40:52;;;;;;;12.25;10.98;;;5.20;99.90;;;;;;4966082;28;20524;-70
2022/05/03 01:43:37;;;;;;;12.68;10.77;;;5.20;99.90;;;;;;4970946;28;20497;-70
2022/05/03 01:46:13;;;;;;;13.13;11.25;;;5.20;99.90;;;;;;4960868;28;20085;-70
2022/05/03 01:51:49;;;;;;;13.50;11.52;;;5.10;99.90;;;;;;4980800;28;20046;-70
2022/05/03 01:54:43;;;;;;;13.30;10.98;;;5.00;99.90;;;;;;4952749;28;20133;-70
2022/05/03 01:57:46;;;;;;;12.52;11.32;;;5.00;99.90;;;;;;4953020;28;20093;-71
2022/05/03 02:00:12;;;;;;;12.98;11.60;;;4.90;99.90;;;;;;4968521;28;20176;-70
2022/05/03 02:02:56;;;;;;;12.35;10.93;;;4.90;99.90;;;;;;4967258;28;20137;-71
2022/05/03 02:05:45;;;;;;;11.73;10.63;;;4.90;99.90;;;;;;4978339;28;20934;-70
2022/05/03 02:08:17;;;;;;;12.65;10.52;;;4.90;99.90;;;;;;4958290;28;20042;-71
2022/05/03 02:11:20;;;;;;;13.32;11.98;;;4.90;99.90;;;;;;4987733;28;20587;-69
2022/05/03 02:16:43;;;;;;;19.38;17.38;;;4.80;99.90;;;;;;4984984;28;20517;-72
2022/05/03 02:19:27;;;;;;;15.85;14.18;;;4.70;99.90;;;;;;4968950;28;20564;-71
2022/05/03 02:22:05;;;;;;;18.00;16.10;;;4.60;99.90;;;;;;4979268;28;20049;-71
2022/05/03 02:24:58;;;;;;;12.65;11.43;;;4.60;99.90;;;;;;4964567;28;20059;-71
2022/05/03 02:27:26;;;;;;;12.25;10.93;;;4.50;99.90;;;;;;4941586;28;20072;-71
2022/05/03 02:29:52;;;;;;;14.25;12.77;;;4.60;99.90;;;;;;4966430;28;20514;-71
2022/05/03 02:32:42;;;;;;;12.82;11.52;;;4.60;99.90;;;;;;4962414;28;20057;-71
2022/05/03 02:35:17;;;;;;;12.73;11.43;;;4.70;99.90;;;;;;4948095;28;20556;-72
2022/05/03 02:38:12;;;;;;;13.73;12.43;;;4.70;99.90;;;;;;4967435;28;20513;-71
2022/05/03 02:40:44;;;;;;;13.63;12.23;;;4.70;99.90;;;;;;4973833;28;20058;-72
2022/05/03 02:43:12;;;;;;;12.95;11.65;;;4.70;99.90;;;;;;4978274;28;20046;-72
2022/05/03 02:45:50;;;;;;;13.93;12.45;;;4.60;99.90;;;;;;4972846;28;20050;-71
2022/05/03 02:48:33;;;;;;;21.85;18.27;;;4.60;99.90;;;;;;4963077;28;20054;-72
2022/05/03 02:51:04;;;;;;;23.27;20.83;;;4.50;99.90;;;;;;4981325;28;20046;-71
2022/05/03 02:53:42;;;;;;;17.90;16.02;;;4.40;99.90;;;;;;4948907;28;20042;-71
2022/05/03 02:56:25;;;;;;;13.32;12.07;;;4.40;99.90;;;;;;4979471;28;20092;-71
2022/05/03 02:59:12;;;;;;;15.23;11.50;;;4.30;99.90;;;;;;4982042;28;20086;-71
2022/05/03 03:02:02;;;;;;;12.93;11.63;;;4.30;99.90;;;;;;4984005;28;20108;-71
2022/05/03 03:05:08;;;;;;;19.38;17.17;;;4.40;99.90;;;;;;4984796;28;20047;-71
2022/05/03 03:07:57;;;;;;;13.02;11.32;;;4.40;99.90;;;;;;4949578;28;20054;-71
2022/05/03 03:10:31;;;;;;;13.90;12.40;;;4.30;99.90;;;;;;4949308;28;20051;-71
2022/05/03 03:13:15;;;;;;;14.27;12.88;;;4.40;99.90;;;;;;4973544;28;20047;-71
2022/05/03 03:15:41;;;;;;;14.05;12.65;;;4.40;99.90;;;;;;4949663;28;20105;-71
2022/05/03 03:18:13;;;;;;;12.00;10.80;;;4.40;99.90;;;;;;4949719;28;20042;-71
2022/05/03 03:20:44;;;;;;;11.82;10.70;;;4.40;99.90;;;;;;4949698;28;20043;-71
2022/05/03 03:23:20;;;;;;;12.50;10.88;;;4.40;99.90;;;;;;4968766;28;20169;-71
2022/05/03 03:25:47;;;;;;;13.10;11.70;;;4.40;99.90;;;;;;4985091;28;20058;-71
2022/05/03 03:28:16;;;;;;;13.25;11.90;;;4.40;99.90;;;;;;4952001;28;20046;-71
2022/05/03 03:30:44;;;;;;;13.52;12.13;;;4.40;99.90;;;;;;4968363;28;20061;-70
2022/05/03 03:33:13;;;;;;;19.30;16.88;;;4.40;99.90;;;;;;4968375;28;20054;-70
2022/05/03 03:35:41;;;;;;;15.52;13.77;;;4.40;99.90;;;;;;4972439;28;20146;-70
2022/05/03 03:38:09;;;;;;;18.45;15.88;;;4.30;99.90;;;;;;4964994;28;20047;-70
2022/05/03 03:40:35;;;;;;;20.55;18.33;;;4.20;99.90;;;;;;4964735;28;20043;-70
2022/05/03 03:43:00;;;;;;;15.02;13.60;;;4.20;99.90;;;;;;4948311;28;20039;-70
2022/05/03 03:45:27;;;;;;;17.10;15.32;;;4.20;99.90;;;;;;4960216;28;20875;-69
2022/05/03 03:47:55;;;;;;;14.82;13.23;;;4.20;99.90;;;;;;4947193;28;20085;-69
2022/05/03 03:50:22;;;;;;;17.55;15.88;;;4.20;99.90;;;;;;4967660;28;20057;-70
2022/05/03 03:52:48;;;;;;;15.18;13.57;;;4.20;99.90;;;;;;4967954;28;20347;-69
2022/05/03 03:55:14;;;;;;;20.40;18.35;;;4.20;99.90;;;;;;4975741;28;20050;-69
2022/05/03 03:57:41;;;;;;;14.40;13.00;;;4.10;99.90;;;;;;4947750;28;20053;-69
2022/05/03 04:00:12;;;;;;;18.52;16.63;;;4.10;99.90;;;;;;4947659;28;20050;-69
2022/05/03 04:02:42;;;;;;;15.43;13.90;;;4.20;99.90;;;;;;4981932;28;20051;-70
2022/05/03 04:05:28;;;;;;;23.05;20.70;;;4.20;99.90;;;;;;4966284;28;20504;-69
2022/05/03 04:07:54;;;;;;;24.42;21.83;;;4.30;99.90;;;;;;4967069;28;20137;-69
2022/05/03 04:10:21;;;;;;;17.52;15.80;;;4.40;99.90;;;;;;4966707;28;20188;-69
2022/05/03 04:12:47;;;;;;;17.60;15.80;;;4.40;99.90;;;;;;4982578;28;20228;-69
2022/05/03 04:15:13;;;;;;;18.17;16.35;;;4.50;99.90;;;;;;4967642;28;20547;-69
2022/05/03 04:17:39;;;;;;;18.88;17.17;;;4.60;99.90;;;;;;4965763;28;20386;-69
2022/05/03 04:20:05;;;;;;;19.67;17.77;;;4.60;99.90;;;;;;4946042;28;20133;-69
2022/05/03 04:22:35;;;;;;;16.75;15.25;;;4.70;99.90;;;;;;4975909;28;20057;-69
2022/05/03 04:25:02;;;;;;;17.55;15.70;;;4.80;99.90;;;;;;4981428;28;20058;-70
2022/05/03 04:27:28;;;;;;;18.30;16.60;;;4.90;99.90;;;;;;4963857;28;20433;-70
2022/05/03 04:29:55;;;;;;;18.50;16.77;;;4.90;99.90;;;;;;4967872;28;20132;-70
2022/05/03 04:32:21;;;;;;;20.15;18.25;;;5.00;99.90;;;;;;4961448;28;20120;-69
2022/05/03 04:34:47;;;;;;;24.15;21.63;;;5.10;99.90;;;;;;4955625;28;20062;-70
2022/05/03 04:37:13;;;;;;;23.35;21.02;;;5.20;99.90;;;;;;4966994;28;20041;-70
2022/05/03 04:39:39;;;;;;;22.33;20.10;;;5.20;99.90;;;;;;4951736;28;20250;-70
2022/05/03 04:42:05;;;;;;;21.17;19.15;;;5.30;99.90;;;;;;4968987;28;20330;-71
2022/05/03 04:44:31;;;;;;;22.20;19.95;;;5.40;99.90;;;;;;4969240;28;20236;-70
2022/05/03 04:46:57;;;;;;;21.42;19.35;;;5.40;99.90;;;;;;4964313;28;20552;-69
2022/05/03 04:49:23;;;;;;;30.88;27.80;;;5.50;99.90;;;;;;4953434;28;20153;-70
2022/05/03 04:51:49;;;;;;;23.00;20.80;;;5.50;99.90;;;;;;4981995;28;20124;-70
2022/05/03 04:54:15;;;;;;;32.03;28.60;;;5.60;99.90;;;;;;4969249;28;20079;-70
2022/05/03 04:56:49;;;;;;;23.63;21.23;;;5.60;99.90;;;;;;4956309;28;20185;-70
2022/05/03 04:59:14;;;;;;;26.60;23.83;;;5.60;99.90;;;;;;4968212;28;20777;-70
2022/05/03 05:01:40;;;;;;;33.80;30.38;;;5.60;99.90;;;;;;4975713;28;20061;-69
2022/05/03 05:04:06;;;;;;;29.13;26.15;;;5.70;99.90;;;;;;4959879;28;20153;-70
2022/05/03 05:06:32;;;;;;;27.92;25.13;;;5.70;99.90;;;;;;4976667;28;20053;-70
2022/05/03 05:08:57;;;;;;;33.42;30.17;;;5.80;99.90;;;;;;4961165;28;20089;-69
2022/05/03 05:11:23;;;;;;;25.95;23.58;;;5.90;99.90;;;;;;4965862;28;20057;-70
2022/05/03 05:13:50;;;;;;;35.15;31.42;;;6.00;99.90;;;;;;4981188;28;20219;-70
2022/05/03 05:16:19;;;;;;;32.85;29.38;;;6.10;99.90;;;;;;4969206;28;20038;-69
2022/05/03 05:18:45;;;;;;;37.83;33.97;;;6.30;99.90;;;;;;4965617;28;20053;-71
2022/05/03 05:21:12;;;;;;;39.30;35.45;;;6.30;99.90;;;;;;4997415;28;20046;-71
2022/05/03 05:23:37;;;;;;;31.58;28.35;;;6.40;99.90;;;;;;4976143;28;20093;-70
2022/05/03 05:26:03;;;;;;;29.30;26.48;;;6.50;99.90;;;;;;4964496;28;20130;-71
2022/05/03 05:28:30;;;;;;;34.83;31.30;;;6.50;99.90;;;;;;4978522;28;20038;-73
2022/05/03 05:30:56;;;;;;;34.55;31.13;;;6.60;99.90;;;;;;4960016;28;20113;-71
2022/05/03 05:33:22;;;;;;;36.97;33.17;;;6.70;99.90;;;;;;4971149;28;20113;-71
2022/05/03 05:35:50;;;;;;;30.00;27.20;;;6.80;99.90;;;;;;4960514;28;20056;-71
2022/05/03 05:38:17;;;;;;;36.38;32.65;;;6.80;99.90;;;;;;4957610;28;20044;-71
2022/05/03 05:40:47;;;;;;;35.38;31.67;;;6.90;99.90;;;;;;4957193;28;20054;-72
2022/05/03 05:43:17;;;;;;;36.63;32.83;;;7.00;99.90;;;;;;4970720;28;20073;-72
2022/05/03 05:45:43;;;;;;;36.13;32.47;;;7.20;99.90;;;;;;4958738;28;20058;-72
2022/05/03 05:48:09;;;;;;;38.78;34.85;;;7.20;99.90;;;;;;4953670;28;20302;-70
2022/05/03 05:50:35;;;;;;;40.10;35.88;;;7.20;99.90;;;;;;4959485;28;20807;-70
2022/05/03 05:55:46;;;;;;;34.72;31.17;;;7.40;99.90;;;;;;4979433;28;20053;-70
2022/05/03 05:58:11;;;;;;;34.22;30.95;;;7.50;99.90;;;;;;4953209;28;20051;-72
2022/05/03 06:00:37;;;;;;;35.95;32.28;;;7.50;99.90;;;;;;4951928;28;20042;-72
2022/05/03 06:03:04;;;;;;;29.05;25.95;;;7.60;99.90;;;;;;4977162;28;20165;-71
2022/05/03 06:05:31;;;;;;;34.20;30.65;;;7.70;99.90;;;;;;4967090;28;20278;-72
2022/05/03 06:07:57;;;;;;;32.35;28.98;;;7.70;99.90;;;;;;4948202;28;20111;-72
2022/05/03 06:10:23;;;;;;;33.42;30.05;;;7.80;99.90;;;;;;4938438;28;20108;-73
2022/05/03 06:12:50;;;;;;;32.17;28.90;;;7.80;99.90;;;;;;4945951;28;20046;-72
2022/05/03 06:15:16;;;;;;;40.53;36.13;;;7.90;99.90;;;;;;4957212;28;20042;-72
2022/05/03 06:17:43;;;;;;;35.63;31.80;;;8.00;99.90;;;;;;4971359;28;20119;-72
2022/05/03 06:20:10;;;;;;;35.97;32.08;;;8.00;99.90;;;;;;4960970;28;20521;-72
2022/05/03 06:22:36;;;;;;;32.85;29.55;;;8.10;99.90;;;;;;4974683;28;20111;-73
2022/05/03 06:25:03;;;;;;;34.35;30.83;;;8.10;99.90;;;;;;4975650;28;20124;-72
2022/05/03 06:27:29;;;;;;;33.03;29.60;;;8.20;99.90;;;;;;4951443;28;20038;-72
2022/05/03 06:29:54;;;;;;;37.60;33.72;;;8.20;99.90;;;;;;4985231;28;20096;-72
2022/05/03 06:32:20;;;;;;;36.00;32.17;;;8.30;99.90;;;;;;4971098;28;20404;-72
2022/05/03 06:34:46;;;;;;;36.97;33.22;;;8.40;99.90;;;;;;4979391;28;20042;-72
2022/05/03 06:37:17;;;;;;;36.22;32.53;;;8.40;99.90;;;;;;4963509;28;20041;-72
2022/05/03 06:39:43;;;;;;;34.70;31.10;;;8.50;99.90;;;;;;4980680;28;20054;-70
2022/05/03 06:42:09;;;;;;;39.53;35.35;;;8.50;99.90;;;;;;4981961;28;20544;-70
2022/05/03 06:44:37;;;;;;;39.25;35.00;;;8.60;99.90;;;;;;4969829;28;20122;-70
2022/05/03 06:47:03;;;;;;;37.22;33.53;;;8.60;99.90;;;;;;4967523;28;20049;-70
2022/05/03 06:49:29;;;;;;;41.60;37.15;;;8.70;99.90;;;;;;4967812;28;20128;-73
2022/05/03 06:51:55;;;;;;;39.72;35.72;;;8.70;99.90;;;;;;4954155;28;20480;-70
2022/05/03 06:54:21;;;;;;;41.70;37.28;;;8.80;99.90;;;;;;4967067;28;20077;-70
2022/05/03 06:56:46;;;;;;;44.10;38.08;;;8.90;99.90;;;;;;4959540;28;20133;-70
2022/05/03 06:59:12;;;;;;;48.30;40.03;;;8.90;99.90;;;;;;4977519;28;20058;-70
2022/05/03 07:01:38;;;;;;;47.80;39.25;;;8.90;99.90;;;;;;4974368;28;20534;-70
2022/05/03 07:04:04;;;;;;;59.00;44.25;;;9.00;99.90;;;;;;4959934;28;20054;-70
2022/05/03 07:06:29;;;;;;;65.80;45.03;;;9.00;99.90;;;;;;4968499;28;20045;-70
2022/05/03 07:08:55;;;;;;;72.18;48.78;;;9.10;99.90;;;;;;4960744;28;20072;-70
2022/05/03 07:11:21;;;;;;;80.22;49.92;;;9.10;99.90;;;;;;4970800;28;20039;-70
2022/05/03 07:13:53;;;;;;;85.45;48.10;;;9.20;99.90;;;;;;4982778;28;20103;-71
2022/05/03 07:16:18;;;;;;;68.32;47.05;;;9.20;99.90;;;;;;4962463;28;20046;-70
2022/05/03 07:24:17;;;;;;;76.13;48.47;;;9.30;99.90;;;;;;4967023;28;20038;-73
2022/05/03 07:26:44;;;;;;;63.15;43.40;;;9.30;99.90;;;;;;4966598;28;20060;-73
2022/05/03 07:29:11;;;;;;;74.72;46.10;;;9.30;99.90;;;;;;4952062;28;20437;-70
2022/05/03 07:31:41;;;;;;;75.25;45.40;;;9.30;99.90;;;;;;4969917;28;20100;-70
2022/05/03 07:34:08;;;;;;;76.82;50.50;;;9.30;99.90;;;;;;4954201;28;20049;-72
2022/05/03 07:36:34;;;;;;;91.53;56.35;;;9.30;99.90;;;;;;4944336;28;20046;-71
2022/05/03 07:39:00;;;;;;;86.32;51.47;;;9.40;99.90;;;;;;4985847;28;20064;-70
2022/05/03 07:41:25;;;;;;;80.57;52.50;;;9.40;99.90;;;;;;4982314;28;20074;-70
2022/05/03 07:43:51;;;;;;;76.97;52.22;;;9.40;99.90;;;;;;4968739;28;20041;-70
2022/05/03 07:46:17;;;;;;;78.43;52.30;;;9.40;99.90;;;;;;4984430;28;20073;-71
2022/05/03 07:48:43;;;;;;;69.68;48.75;;;9.40;99.90;;;;;;4978765;28;20646;-71
2022/05/03 07:51:12;;;;;;;70.53;48.28;;;9.40;99.90;;;;;;4983426;28;20097;-72
2022/05/03 07:53:39;;;;;;;69.57;49.10;;;9.40;99.90;;;;;;4976786;28;20092;-71
2022/05/03 07:56:05;;;;;;;63.40;45.72;;;9.50;99.90;;;;;;4965662;28;20049;-71
2022/05/03 07:58:31;;;;;;;66.65;45.88;;;9.50;99.90;;;;;;4940989;28;20567;-70
2022/05/03 08:00:57;;;;;;;56.45;40.97;;;9.50;99.90;;;;;;4980818;28;20082;-71
2022/05/03 08:03:23;;;;;;;47.42;35.75;;;9.50;99.90;;;;;;4971243;28;20888;-71
2022/05/03 08:05:50;;;;;;;49.08;38.00;;;9.50;99.90;;;;;;4964575;28;20042;-70
2022/05/03 08:08:16;;;;;;;37.22;29.92;;;9.50;99.90;;;;;;4954900;28;20050;-73
2022/05/03 08:10:45;;;;;;;40.78;28.55;;;9.60;99.90;;;;;;4955369;28;20049;-74
2022/05/03 08:13:11;;;;;;;37.28;28.10;;;9.60;99.90;;;;;;4989505;28;20068;-72
2022/05/03 08:15:38;;;;;;;24.55;14.68;;;9.60;99.90;;;;;;4978385;28;20050;-73
2022/05/03 08:18:05;;;;;;;18.85;11.68;;;9.60;99.90;;;;;;4965781;28;20458;-73
2022/05/03 08:20:30;;;;;;;18.27;10.88;;;9.60;99.90;;;;;;4967578;28;20080;-73
2022/05/03 08:22:56;;;;;;;15.15;9.40;;;9.60;99.90;;;;;;4979758;28;20050;-73
2022/05/03 08:25:23;;;;;;;14.65;8.88;;;9.70;99.90;;;;;;4958441;28;20145;-73
2022/05/03 08:27:48;;;;;;;15.75;8.48;;;9.70;99.90;;;;;;4954115;28;20562;-73
2022/05/03 08:30:14;;;;;;;13.35;8.52;;;9.70;99.90;;;;;;4979889;28;20050;-71
2022/05/03 08:32:40;;;;;;;15.57;9.18;;;9.80;99.90;;;;;;4988838;28;20100;-74
2022/05/03 08:35:06;;;;;;;14.52;8.30;;;9.90;99.90;;;;;;4966278;28;20059;-73
2022/05/03 08:43:05;;;;;;;19.98;9.13;;;10.00;99.90;;;;;;5001241;28;20080;-74
2022/05/03 08:45:30;;;;;;;13.93;8.95;;;10.10;99.90;;;;;;4984887;28;20050;-72
2022/05/03 08:47:59;;;;;;;13.80;8.95;;;10.10;99.90;;;;;;4969175;28;20057;-73
2022/05/03 08:50:25;;;;;;;15.95;8.95;;;10.10;99.90;;;;;;4985166;28;20042;-73
2022/05/03 08:52:56;;;;;;;12.15;8.15;;;10.20;99.90;;;;;;4959100;28;20042;-71
2022/05/03 08:55:23;;;;;;;18.48;9.68;;;10.20;99.90;;;;;;4982699;28;20405;-71
2022/05/03 08:57:49;;;;;;;14.68;9.07;;;10.30;99.90;;;;;;4964118;28;20053;-71
2022/05/03 09:00:16;;;;;;;14.52;9.20;;;10.30;99.90;;;;;;4974976;28;20317;-71
2022/05/03 09:02:42;;;;;;;10.70;8.93;;;10.20;99.90;;;;;;4969182;28;20048;-71
2022/05/03 09:05:09;;;;;;;16.02;9.48;;;10.20;99.90;;;;;;4965952;28;20054;-72
2022/05/03 09:07:36;;;;;;;15.25;9.18;;;10.30;99.90;;;;;;4969606;28;20030;-71
2022/05/03 09:10:20;;;;;;;15.40;9.90;;;10.30;99.90;;;;;;4979451;28;20077;-72
2022/05/03 09:12:49;;;;;;;16.80;10.40;;;10.40;99.90;;;;;;4971946;28;20459;-71
2022/05/03 09:15:15;;;;;;;21.67;10.98;;;10.40;99.90;;;;;;4955465;28;20081;-71
2022/05/03 09:17:41;;;;;;;19.92;11.40;;;10.30;99.90;;;;;;4987862;28;20124;-72
2022/05/03 09:26:12;;;;;;;19.90;10.45;;;10.20;99.90;;;;;;4971980;28;20054;-71
2022/05/03 09:28:50;;;;;;;22.52;10.68;;;10.10;99.90;;;;;;4987732;28;20129;-71
2022/05/03 09:31:47;;;;;;;22.95;10.93;;;10.10;99.90;;;;;;4985044;28;20080;-72
2022/05/03 09:34:25;;;;;;;21.52;10.63;;;10.00;99.90;;;;;;4954675;28;20061;-71
2022/05/03 09:36:53;;;;;;;20.13;9.98;;;10.00;99.90;;;;;;4953630;28;20129;-70
2022/05/03 09:39:28;;;;;;;18.80;9.75;;;10.10;99.90;;;;;;4965221;28;20149;-72
2022/05/03 09:42:09;;;;;;;18.73;10.65;;;10.10;99.90;;;;;;4965515;28;20045;-70
2022/05/03 09:44:36;;;;;;;21.20;10.10;;;10.20;99.90;;;;;;4987299;28;20369;-70
2022/05/03 09:47:11;;;;;;;18.95;8.30;;;10.30;99.90;;;;;;4965680;28;20404;-71
2022/05/03 09:49:41;;;;;;;19.65;9.38;;;10.30;99.90;;;;;;4951734;28;20103;-71
2022/05/03 09:52:21;;;;;;;19.40;9.15;;;10.40;99.90;;;;;;4956707;28;20130;-71
2022/05/03 09:54:48;;;;;;;21.15;9.60;;;10.40;99.90;;;;;;4970646;28;20041;-70
2022/05/03 09:57:22;;;;;;;24.67;9.77;;;10.50;99.90;;;;;;4968748;28;20522;-72
2022/05/03 09:59:49;;;;;;;18.08;8.90;;;10.50;99.90;;;;;;4961974;28;20041;-72
2022/05/03 10:02:21;;;;;;;18.83;9.27;;;10.60;99.90;;;;;;4987525;28;20137;-71
2022/05/03 10:04:48;;;;;;;23.35;9.75;;;10.60;99.90;;;;;;4987397;28;20042;-71
2022/05/03 10:07:14;;;;;;;20.95;9.65;;;10.60;99.90;;;;;;4988008;28;20481;-71
2022/05/03 10:09:41;;;;;;;20.95;8.25;;;10.60;99.90;;;;;;4986956;28;20358;-71
2022/05/03 10:12:09;;;;;;;18.88;7.90;;;10.70;99.90;;;;;;4955106;28;20038;-71
2022/05/03 10:14:36;;;;;;;19.42;8.57;;;10.80;99.90;;;;;;4967626;28;20069;-71
2022/05/03 10:22:51;;;;;;;13.68;8.38;;;10.80;99.90;;;;;;4967971;28;20633;-72
2022/05/03 10:25:28;;;;;;;15.75;7.35;;;10.90;99.90;;;;;;4980962;28;20050;-72
2022/05/03 10:27:56;;;;;;;18.40;7.82;;;10.90;99.90;;;;;;4960483;28;20049;-72
2022/05/03 10:30:23;;;;;;;12.43;7.18;;;10.90;99.90;;;;;;4976336;28;20560;-71
2022/05/03 10:33:28;;;;;;;14.13;6.32;;;11.00;99.90;;;;;;4975231;28;20046;-73
2022/05/03 10:35:54;;;;;;;11.60;5.63;;;11.00;99.90;;;;;;4968974;28;20068;-73
2022/05/03 10:38:46;;;;;;;16.65;6.20;;;11.10;99.90;;;;;;4970332;28;20045;-72
2022/05/03 10:41:22;;;;;;;16.02;6.07;;;11.10;99.90;;;;;;4970375;28;20077;-72
2022/05/03 10:43:47;;;;;;;14.80;5.63;;;11.20;99.90;;;;;;4980860;28;20065;-72
2022/05/03 10:46:19;;;;;;;17.25;5.50;;;11.20;99.90;;;;;;4967934;28;20088;-70
2022/05/03 10:49:03;;;;;;;16.02;5.45;;;11.40;99.90;;;;;;4965082;28;20556;-71
2022/05/03 10:51:30;;;;;;;14.25;5.47;;;11.50;99.90;;;;;;4985021;28;20053;-70
2022/05/03 10:54:00;;;;;;;14.05;5.85;;;11.60;99.90;;;;;;4982921;28;20054;-71
2022/05/03 10:56:26;;;;;;;16.05;5.82;;;11.70;99.90;;;;;;4963904;28;20046;-71
2022/05/03 10:59:14;;;;;;;12.85;5.18;;;11.70;99.90;;;;;;4967990;28;20516;-73
2022/05/03 11:01:55;;;;;;;17.88;5.50;;;11.80;99.90;;;;;;4986571;28;20063;-72
2022/05/03 11:04:22;;;;;;;13.98;5.25;;;11.80;99.90;;;;;;4978909;28;20042;-71
2022/05/03 11:06:49;;;;;;;14.70;5.22;;;11.80;99.90;;;;;;4956993;28;20564;-71
2022/05/03 11:09:25;;;;;;;14.25;6.13;;;11.90;99.90;;;;;;4959247;28;20099;-71
2022/05/03 11:11:57;;;;;;;15.73;5.28;;;12.00;99.90;;;;;;4966975;28;20120;-71
2022/05/03 11:14:24;;;;;;;14.77;5.38;;;12.10;99.90;;;;;;4958804;28;20042;-70
2022/05/03 11:17:05;;;;;;;17.20;5.20;;;12.10;99.90;;;;;;4986523;28;20125;-70
2022/05/03 11:19:52;;;;;;;12.90;5.28;;;12.20;99.90;;;;;;4961749;28;20058;-71
2022/05/03 11:22:19;;;;;;;15.40;6.22;;;12.20;99.90;;;;;;4972889;28;20053;-71
2022/05/03 11:24:47;;;;;;;11.77;4.75;;;12.30;99.90;;;;;;4962825;28;20140;-71
2022/05/03 11:27:14;;;;;;;14.23;5.22;;;12.20;99.90;;;;;;4958914;28;20050;-71
2022/05/03 11:30:01;;;;;;;14.20;4.75;;;12.10;99.90;;;;;;4963434;28;20329;-71
2022/05/03 11:32:37;;;;;;;13.35;4.55;;;12.30;99.90;;;;;;4958283;28;20515;-71
2022/05/03 11:35:11;;;;;;;14.05;4.90;;;12.40;99.90;;;;;;4966214;28;20046;-73
2022/05/03 11:37:45;;;;;;;11.32;4.93;;;12.40;99.90;;;;;;4990077;28;20034;-73
2022/05/03 11:40:11;;;;;;;11.98;4.40;;;12.50;99.90;;;;;;4974131;28;20056;-73
2022/05/03 11:42:42;;;;;;;12.60;4.43;;;12.60;99.90;;;;;;4973895;28;20129;-73
2022/05/03 11:45:10;;;;;;;11.00;3.80;;;12.50;99.90;;;;;;4983475;28;20212;-73
2022/05/03 11:47:41;;;;;;;9.88;3.92;;;12.50;99.90;;;;;;4958396;28;20512;-71
2022/05/03 11:50:09;;;;;;;10.35;3.85;;;12.50;99.90;;;;;;4970637;28;20053;-72
2022/05/03 11:56:07;;;;;;;9.15;3.42;;;12.60;99.90;;;;;;4981818;28;20064;-71
2022/05/03 11:58:06;;;;;;;8.75;3.67;;;12.60;99.90;;;;;;4964559;28;20056;-71
2022/05/03 12:00:44;;;;;;;9.68;3.47;;;12.70;99.90;;;;;;4986483;28;20432;-71
2022/05/03 12:03:10;;;;;;;9.88;3.65;;;12.80;99.90;;;;;;4971422;28;20045;-71
2022/05/03 12:05:37;;;;;;;8.25;3.22;;;12.80;99.90;;;;;;4968125;28;20487;-72
2022/05/03 12:08:03;;;;;;;12.55;3.42;;;12.80;99.90;;;;;;4986477;28;20069;-71
2022/05/03 12:10:37;;;;;;;7.10;3.40;;;12.90;99.90;;;;;;4953590;28;20410;-72
2022/05/03 12:13:25;;;;;;;6.93;3.05;;;13.00;99.90;;;;;;4981708;28;20041;-72
2022/05/03 12:15:57;;;;;;;9.05;3.20;;;13.10;99.90;;;;;;4989483;28;20108;-71
2022/05/03 12:18:44;;;;;;;10.20;3.15;;;13.30;99.90;;;;;;4972730;28;20045;-71
2022/05/03 12:21:30;;;;;;;9.88;2.95;;;13.30;99.90;;;;;;4969100;28;20050;-72
2022/05/03 12:24:02;;;;;;;9.07;3.05;;;13.30;99.90;;;;;;4957098;28;20813;-71
2022/05/03 12:26:40;;;;;;;12.70;3.15;;;13.20;99.90;;;;;;4976372;28;20052;-72
2022/05/03 12:29:07;;;;;;;9.75;3.20;;;13.20;99.90;;;;;;4962884;28;20581;-72
2022/05/03 12:31:36;;;;;;;9.05;3.00;;;13.20;99.90;;;;;;4983303;28;20403;-72
2022/05/03 12:34:22;;;;;;;6.97;2.60;;;13.30;99.90;;;;;;4962878;28;20478;-72
2022/05/03 12:36:48;;;;;;;8.40;3.05;;;13.50;99.90;;;;;;4966171;28;20046;-71
2022/05/03 12:39:19;;;;;;;9.90;3.08;;;13.60;99.90;;;;;;4936210;28;20393;-72
2022/05/03 12:41:53;;;;;;;10.80;3.25;;;13.70;98.50;;;;;;4956681;28;20545;-71
2022/05/03 12:44:21;;;;;;;6.70;2.50;;;13.70;97.20;;;;;;4983701;28;20053;-73
2022/05/03 12:46:49;;;;;;;7.38;3.00;;;13.60;98.60;;;;;;4969422;28;20045;-72
2022/05/03 12:49:15;;;;;;;8.55;2.22;;;13.60;97.80;;;;;;4966819;28;20635;-72
2022/05/03 12:51:46;;;;;;;7.65;2.45;;;13.50;98.70;;;;;;4952694;28;20039;-71
2022/05/03 12:54:12;;;;;;;8.57;2.78;;;13.40;98.10;;;;;;4956002;28;20046;-71
2022/05/03 12:59:24;;;;;;;8.63;2.60;;;13.40;99.00;;;;;;4978621;28;20512;-72
2022/05/03 13:01:57;;;;;;;8.75;2.40;;;13.30;99.10;;;;;;4959504;28;20038;-72
2022/05/03 13:04:28;;;;;;;6.43;2.40;;;13.40;99.00;;;;;;4965453;28;20046;-72
2022/05/03 13:06:54;;;;;;;8.13;3.40;;;13.40;97.80;;;;;;4940734;28;20180;-71
2022/05/03 13:09:21;;;;;;;7.45;2.20;;;13.40;97.90;;;;;;4964949;28;20053;-71
2022/05/03 13:11:47;;;;;;;6.05;2.05;;;13.50;99.20;;;;;;4971993;28;20399;-72
2022/05/03 13:14:13;;;;;;;7.30;2.25;;;13.60;97.90;;;;;;4933692;28;20046;-72
2022/05/03 13:16:39;;;;;;;7.88;2.42;;;13.80;97.10;;;;;;4964637;28;20042;-72
2022/05/03 13:19:06;;;;;;;7.18;2.65;;;13.90;96.30;;;;;;4961697;28;20058;-72
2022/05/03 13:21:36;;;;;;;7.10;2.58;;;13.90;96.00;;;;;;4964530;28;20046;-72
2022/05/03 13:24:09;;;;;;;5.88;2.10;;;13.90;96.80;;;;;;4988161;28;20061;-71
2022/05/03 13:26:37;;;;;;;9.30;2.63;;;14.00;96.10;;;;;;4983200;28;20038;-71
2022/05/03 13:29:05;;;;;;;9.02;2.10;;;13.90;95.40;;;;;;4942637;28;20054;-73
2022/05/03 13:31:31;;;;;;;7.32;2.28;;;13.90;96.60;;;;;;4965370;28;20045;-73
2022/05/03 13:33:57;;;;;;;6.38;2.38;;;13.90;94.70;;;;;;4954617;28;20045;-73
2022/05/03 13:41:52;;;;;;;7.00;2.38;;;13.80;95.10;;;;;;4981198;28;20053;-73